Accueil
METAR-TAF:

METAR-TAF

Aéroports :

Phetchabun, Thaïlande

latitude: 16-40-33N, longitude: 101-11-42E, altitude: 137 m

Observation

Le bulletin a été fait il y a 1 heure et 10 minutes, à 03:00 UTC
Vent calme
Température 33°C
Humidité 63%
Pression 1010 hPa
Visibilité 10 km ou plus
Quelques nuages à une hauteur de 2500 ft

METAR: VTPB 260300Z 00000KT 9999 FEW025 33/25 Q1010 NOSIG

Heure: 11:10 (04:10 UTC)

Prévision

Le bulletin a été fait il y a 5 heures et 10 minutes, à 23:00 UTC
Prévision valable du 26 à 00 UTC au 26 à 24 UTC
Vent 5 kt de sud
Visibilité 10 km ou plus
Nuages épars à une hauteur de 2500 ft
Temporairement
du 26 à 08 UTC au 26 à 12 UTC
Vent 15 kt de ouest/nord-ouest avec des rafales jusqu'à 25 kt
Visibilité: 4000 m
Quelques nuages à une hauteur de 2000 ft, Cumulonimbus.
Nuages fragmentés à une hauteur de 2500 ft
orage, pluie

TAF: VTPB 252300Z 2600/2624 18005KT 9999 SCT025 TEMPO 2608/2612 30015G25KT 4000 TSRA FEW020CB BKN025

Observations et prévisions météorologiques de plus de 4000 aéroports (messages METAR et TAF).

Les stations disponibles sont représentées par des disques jaunes et rouges sur la carte.

Passer la souris dessus pour voir le nom de la station.

Cliquer dessus pour voir les observations et prévisions météorologiques.

Pour changer de carte: cliquez sur les boutons verts avec une croix noire pour zoomer, sur le bouton vert avec un tiret pour effectuer un zoom arrière, ou sur les flèches vertes pour les cartes adjacentes.


METAR-TAF: